Taunton, MA

3:06 AM EDT on August 17, 2017 (GMT -0400)
Taunton Municipal

Weather History for KTAN - February, 2013

Change the Weather History Date:

Sunday, February 24, 2013

  Actual Average Record
Temperature  
Mean Temperature 38 °F -  
Max Temperature 42 °F 43 °F 63 °F (1985)
Min Temperature 33 °F 23 °F -11 °F (2015)
Degree Days  
Heating Degree Days 28    
Moisture  
Dew Point 34 °F    
Average Humidity 86    
Maximum Humidity 89    
Minimum Humidity 81    
Precipitation  
Precipitation 0.77 in - - ()
Sea Level Pressure  
Sea Level Pressure 29.74 in    
Wind  
Wind Speed 7 mph (North)    
Max Wind Speed 13 mph    
Max Gust Speed 24 mph    
Visibility 4 miles    
Events Rain , Snow    
Averages and records for this station are not official NWS values.
T = Trace of Precipitation, MM = Missing Value Source: NWS Daily Summary

Daily Weather History Graph

Daily Weather History Graph

Search for Another Location

Airport or City:

Trip Planner

Search our weather history database for the weather conditions in past years. The results will help you decide how hot, cold, wet, or windy it might be!

Date:

Astronomy

Feb. 24, 2013 Rise Set
Actual Time 6:26 AM EST 5:28 PM EST
Civil Twilight 5:58 AM EST 5:56 PM EST
Nautical Twilight 5:26 AM EST 6:29 PM EST
Astronomical Twilight 4:53 AM EST 7:01 PM EST
Moon 4:36 PM EST (2/24) 5:22 AM EST (2/24)
Length of Visible Light 11h 58m
Length of Day
11h 02m
Waxing Gibbous, 99% of the Moon is Illuminated
Feb 24
Waxing Gibbous
Feb 25
Full
Mar 4
Last Quarter
Mar 11
New
Mar 19
First Quarter

Hourly Weather History & Observations

Time (EST) Temp. Windchill Dew Point Humidity Pressure Visibility Wind Dir Wind Speed Gust Speed Precip Events Conditions
12:05 AM 37.0 °F 32.4 °F 34.0 °F 89% 29.87 in 2.5 mi NNE 5.8 mph - 0.01 in Rain Light Rain
12:23 AM 37.0 °F 32.4 °F 34.0 °F 89% 29.86 in 3.0 mi NE 5.8 mph - 0.02 in Rain Light Rain
12:35 AM 37.9 °F 34.4 °F 34.0 °F 86% 29.85 in 2.0 mi NE 4.6 mph - 0.03 in Rain Light Rain
12:52 AM 37.9 °F 34.4 °F 35.1 °F 89% 29.85 in 2.0 mi NE 4.6 mph - 0.06 in Rain Rain
1:04 AM 37.9 °F 33.5 °F 35.1 °F 89% 29.84 in 5.0 mi Variable 5.8 mph - 0.01 in Rain Light Rain
1:22 AM 37.9 °F 32.7 °F 35.1 °F 89% 29.82 in 4.0 mi NNE 6.9 mph - 0.01 in Rain Light Rain
1:44 AM 37.9 °F 32.7 °F 35.1 °F 89% 29.81 in 4.0 mi NE 6.9 mph - 0.02 in Rain Light Rain
1:52 AM 39.0 °F 34.8 °F 35.1 °F 86% 29.81 in 6.0 mi NE 5.8 mph - 0.02 in Rain Light Rain
2:52 AM 39.9 °F 34.5 °F 36.0 °F 86% 29.77 in 5.0 mi NNE 8.1 mph - 0.01 in Rain Light Rain
3:20 AM 39.9 °F 34.5 °F 37.0 °F 89% 29.74 in 3.0 mi NE 8.1 mph - 0.01 in Rain Rain
3:42 AM 39.9 °F 35.8 °F 37.0 °F 89% 29.73 in 6.0 mi NE 5.8 mph - 0.02 in Rain Light Rain
3:52 AM 41.0 °F 37.1 °F 37.0 °F 86% 29.73 in 6.0 mi Variable 5.8 mph - 0.02 in Rain Light Rain
4:52 AM 41.0 °F 36.4 °F 37.9 °F 89% 29.71 in 4.0 mi NE 6.9 mph - 0.05 in Rain Rain
5:52 AM 41.0 °F 38.0 °F 37.9 °F 89% 29.73 in 3.0 mi NNE 4.6 mph - 0.07 in Rain Rain
6:26 AM 41.0 °F 38.0 °F 37.0 °F 86% 29.72 in 4.0 mi NNE 4.6 mph - 0.05 in Rain Light Rain
6:52 AM 41.0 °F 35.8 °F 37.0 °F 86% 29.71 in 5.0 mi NNE 8.1 mph - 0.07 in Rain Light Rain
7:52 AM 41.0 °F 35.8 °F 37.0 °F 86% 29.70 in 3.0 mi North 8.1 mph - 0.03 in Rain Light Rain
8:25 AM 41.0 °F 36.4 °F 37.9 °F 89% 29.68 in 2.5 mi North 6.9 mph - 0.01 in Rain Light Rain
8:49 AM 41.0 °F 36.4 °F 37.4 °F 87% 29.68 in 1.8 mi North 6.9 mph - 0.01 in Rain Light Rain
8:52 AM 41.0 °F 35.8 °F 37.9 °F 89% 29.68 in 1.8 mi North 8.1 mph - 0.02 in Rain Light Rain
9:36 AM 41.0 °F 36.4 °F 37.9 °F 89% 29.66 in 2.5 mi North 6.9 mph - 0.02 in Rain Light Rain
9:52 AM 41.0 °F 35.8 °F 37.9 °F 89% 29.66 in 2.0 mi North 8.1 mph - 0.02 in Rain Light Rain
10:14 AM 41.0 °F 34.3 °F 37.9 °F 89% 29.64 in 1.8 mi North 11.5 mph 19.6 mph 0.02 in Rain Rain
10:27 AM 41.0 °F 36.4 °F 37.9 °F 89% 29.65 in 2.5 mi North 6.9 mph - 0.03 in Rain Light Rain
10:35 AM 41.0 °F 35.2 °F 37.9 °F 89% 29.65 in 3.0 mi North 9.2 mph 17.3 mph 0.04 in Rain Light Rain
10:50 AM 42.8 °F 37.5 °F 37.4 °F 81% 29.64 in 3.0 mi North 9.2 mph 17.3 mph 0.06 in Rain Rain
10:52 AM 42.1 °F 36.6 °F 37.9 °F 85% 29.65 in 3.0 mi North 9.2 mph 17.3 mph 0.06 in Rain Rain
11:10 AM 42.1 °F 37.7 °F 37.9 °F 85% 29.66 in 2.5 mi NNW 6.9 mph - 0.05 in Rain Rain
11:26 AM 41.0 °F 36.4 °F 37.9 °F 89% 29.66 in 3.0 mi NNW 6.9 mph - 0.08 in Rain Rain
11:52 AM 39.9 °F 32.9 °F 36.0 °F 86% 29.66 in 4.0 mi NW 11.5 mph - 0.13 in Rain Rain
12:52 PM 37.0 °F 29.3 °F 32.0 °F 82% 29.66 in 7.0 mi NNW 11.5 mph 20.7 mph 0.10 in Rain Light Rain
1:04 PM 37.0 °F 29.8 °F 32.0 °F 82% 29.65 in 10.0 mi North 10.4 mph 18.4 mph 0.00 in Rain Light Rain
1:18 PM 37.0 °F 30.4 °F 32.0 °F 82% 29.65 in 10.0 mi North 9.2 mph 18.4 mph 0.00 in Rain Light Rain
1:36 PM 37.0 °F 29.8 °F 33.1 °F 86% 29.64 in 10.0 mi North 10.4 mph 19.6 mph 0.00 in Rain Light Rain
1:52 PM 37.0 °F 29.3 °F 33.1 °F 86% 29.65 in 10.0 mi North 11.5 mph 19.6 mph 0.00 in   Overcast
2:27 PM 37.0 °F 30.4 °F 32.0 °F 82% 29.65 in 10.0 mi North 9.2 mph 24.2 mph N/A   Overcast
2:52 PM 37.0 °F 31.0 °F 32.0 °F 82% 29.66 in 10.0 mi North 8.1 mph 19.6 mph N/A   Overcast
3:45 PM 36.0 °F 28.0 °F 32.0 °F 86% 29.68 in 4.0 mi North 11.5 mph 23.0 mph 0.01 in Snow Light Snow
3:52 PM 37.0 °F 28.9 °F 32.0 °F 82% 29.68 in 5.0 mi North 12.7 mph 20.7 mph 0.01 in Snow Light Snow
4:52 PM 36.0 °F 28.0 °F 30.9 °F 82% 29.70 in 4.0 mi NNW 11.5 mph - 0.01 in   Overcast
5:30 PM 35.1 °F 27.9 °F 30.9 °F 85% 29.72 in 2.0 mi NNW 9.2 mph - 0.00 in Snow Light Snow
5:48 PM 35.6 °F 27.5 °F 30.2 °F 81% 29.73 in 3.0 mi North 11.5 mph - 0.00 in Snow Light Snow
5:52 PM 35.1 °F 28.6 °F 30.9 °F 85% 29.73 in 3.0 mi North 8.1 mph - 0.00 in Snow Light Snow
6:52 PM 34.0 °F 26.6 °F 30.9 °F 89% 29.77 in 3.0 mi North 9.2 mph - 0.00 in Snow Light Snow
7:02 PM 34.0 °F 26.6 °F 30.0 °F 85% 29.77 in 2.5 mi North 9.2 mph - 0.01 in Snow Light Snow
7:28 PM 34.0 °F 27.2 °F 30.0 °F 85% 29.78 in 3.0 mi North 8.1 mph - 0.01 in Snow Light Snow
7:50 PM 33.8 °F 27.0 °F 30.2 °F 87% 29.79 in 3.0 mi North 8.1 mph - 0.01 in Snow Light Snow
7:52 PM 34.0 °F 26.6 °F 30.0 °F 85% 29.80 in 3.0 mi NNW 9.2 mph - 0.01 in Snow Light Snow
8:00 PM 34.0 °F 28.0 °F 30.0 °F 85% 29.80 in 2.5 mi NNW 6.9 mph - 0.00 in Snow Light Snow
8:20 PM 34.0 °F 28.0 °F 30.0 °F 85% 29.81 in 2.5 mi North 6.9 mph - 0.00 in Snow Light Snow
8:52 PM 34.0 °F 27.2 °F 30.0 °F 85% 29.83 in 2.0 mi NNW 8.1 mph - 0.01 in Snow Light Snow
9:12 PM 33.1 °F 26.1 °F 30.0 °F 89% 29.83 in 1.8 mi NNW 8.1 mph - 0.00 in Snow Light Snow
9:23 PM 33.1 °F 26.1 °F 30.0 °F 89% 29.83 in 2.0 mi NNW 8.1 mph - 0.00 in Snow Light Snow
9:30 PM 33.1 °F 27.7 °F 28.9 °F 85% 29.83 in 2.0 mi NNW 5.8 mph - 0.00 in Snow Light Snow
9:47 PM 33.8 °F 28.6 °F 30.2 °F 87% 29.84 in 1.5 mi NNW 5.8 mph - 0.01 in Snow Light Snow
9:52 PM 33.1 °F 26.1 °F 30.0 °F 89% 29.85 in 1.2 mi NNW 8.1 mph - 0.01 in Snow Light Snow
10:52 PM 33.1 °F 27.7 °F 28.9 °F 85% 29.86 in 1.0 mi NNW 5.8 mph - 0.04 in Snow Light Snow
11:20 PM 33.1 °F 28.7 °F 28.9 °F 85% 29.86 in 1.5 mi NNW 4.6 mph - 0.02 in Snow Light Snow
11:43 PM 33.1 °F 27.7 °F 28.9 °F 85% 29.87 in 2.0 mi NNW 5.8 mph - 0.02 in Snow Light Snow
11:52 PM 33.1 °F 28.7 °F 28.9 °F 85% 29.87 in 2.5 mi NNW 4.6 mph - 0.02 in Snow Light Snow